createdAt,value
2023-04-18T00:01:25.528Z,82.82
2023-04-18T00:03:53.418Z,83.09
2023-04-18T00:06:22.209Z,82.92
2023-04-18T00:08:50.031Z,82.71
2023-04-18T00:11:17.928Z,82.92
2023-04-18T00:13:47.355Z,83.14
2023-04-18T00:16:15.701Z,83.01
2023-04-18T00:18:43.507Z,83.47
2023-04-18T00:21:11.531Z,83.51
2023-04-18T00:23:39.805Z,83.66
2023-04-18T00:26:07.628Z,83.61
2023-04-18T00:28:35.431Z,83.45
2023-04-18T00:31:03.386Z,83.98
2023-04-18T00:33:34.373Z,84.29
2023-04-18T00:36:02.243Z,84.14
2023-04-18T00:38:30.078Z,83.73
2023-04-18T00:40:57.938Z,83.94
2023-04-18T00:43:26.712Z,84.32
2023-04-18T00:45:54.587Z,84.66
2023-04-18T00:48:23.298Z,84.41
2023-04-18T00:50:51.102Z,84.73
2023-04-18T00:53:18.981Z,85.05
2023-04-18T00:55:47.299Z,85.09
2023-04-18T00:58:16.548Z,85.15
2023-04-18T01:00:44.393Z,85.24
2023-04-18T01:03:14.517Z,84.88
2023-04-18T01:05:42.623Z,85.21
2023-04-18T01:08:11.599Z,85.34
2023-04-18T01:10:39.467Z,85.44
2023-04-18T01:13:19.380Z,85.63
2023-04-18T01:15:49.931Z,85.79
2023-04-18T01:18:18.394Z,85.97
2023-04-18T01:20:49.676Z,85.97
2023-04-18T01:23:19.306Z,85.96
2023-04-18T01:25:51.556Z,85.90
2023-04-18T01:28:22.732Z,85.85
2023-04-18T01:30:50.876Z,86.03
2023-04-18T01:33:18.641Z,86.18
2023-04-18T01:35:48.203Z,86.56
2023-04-18T01:38:15.974Z,86.36
2023-04-18T01:40:44.096Z,86.33
2023-04-18T01:43:11.914Z,86.36
2023-04-18T01:45:39.751Z,86.26
2023-04-18T01:48:09.849Z,86.17
2023-04-18T01:50:37.703Z,86.32
2023-04-18T01:53:05.541Z,86.40
2023-04-18T01:55:33.288Z,86.44
2023-04-18T01:58:01.089Z,86.38
2023-04-18T02:00:29.092Z,86.29
2023-04-18T02:02:59.376Z,86.70
2023-04-18T02:05:27.421Z,86.89
2023-04-18T02:07:55.240Z,86.88
2023-04-18T02:10:23.992Z,86.58
2023-04-18T02:12:51.761Z,86.88
2023-04-18T02:15:19.716Z,87.13
2023-04-18T02:17:49.017Z,87.23
2023-04-18T02:20:16.858Z,87.28
2023-04-18T02:22:44.679Z,87.83
2023-04-18T02:25:12.515Z,87.62
2023-04-18T02:27:40.329Z,88.11
2023-04-18T02:30:08.954Z,87.93
2023-04-18T02:32:36.900Z,88.61
2023-04-18T02:35:05.333Z,88.74
2023-04-18T02:37:33.157Z,88.78
2023-04-18T02:40:00.982Z,89.14
2023-04-18T02:42:31.476Z,89.23
2023-04-18T02:44:59.252Z,88.78
2023-04-18T02:47:29.489Z,88.43
2023-04-18T02:49:58.888Z,88.70
2023-04-18T02:52:27.860Z,88.84
2023-04-18T02:54:55.768Z,88.73
2023-04-18T02:57:26.542Z,89.10
2023-04-18T02:59:59.936Z,88.79
2023-04-18T03:02:27.831Z,88.87
2023-04-18T03:04:58.087Z,89.19
2023-04-18T03:07:26.416Z,89.62
2023-04-18T03:09:54.558Z,89.21
2023-04-18T03:12:25.737Z,89.28
2023-04-18T03:14:53.546Z,89.37
2023-04-18T03:17:21.886Z,88.88
2023-04-18T03:19:50.146Z,88.92
2023-04-18T03:22:20.222Z,88.94
2023-04-18T03:24:59.906Z,88.63
2023-04-18T03:27:50.521Z,88.97
2023-04-18T03:30:20.830Z,89.04
2023-04-18T03:32:53.691Z,89.21
2023-04-18T03:35:21.846Z,89.24
2023-04-18T03:37:50.420Z,89.33
2023-04-18T03:40:26.081Z,89.21
2023-04-18T03:42:55.992Z,89.34
2023-04-18T03:45:23.738Z,89.36
2023-04-18T03:47:51.621Z,89.13
2023-04-18T03:50:19.914Z,89.40
2023-04-18T03:52:50.604Z,89.64
2023-04-18T03:55:22.151Z,90.00
2023-04-18T03:57:49.968Z,89.92
2023-04-18T04:00:25.936Z,89.33
2023-04-18T04:02:59.467Z,89.31
2023-04-18T04:05:28.032Z,89.31
2023-04-18T04:07:56.427Z,89.30
2023-04-18T04:10:24.586Z,89.14
2023-04-18T04:12:52.679Z,89.03
2023-04-18T04:15:20.924Z,89.06
2023-04-18T04:18:03.455Z,89.24
2023-04-18T04:20:32.758Z,88.83
2023-04-18T04:23:07.613Z,89.05
2023-04-18T04:25:36.480Z,89.28
2023-04-18T04:28:08.131Z,89.36
2023-04-18T04:30:43.944Z,89.50
2023-04-18T04:33:12.284Z,89.10
2023-04-18T04:35:41.744Z,88.94
2023-04-18T04:38:09.678Z,88.84
2023-04-18T04:40:44.233Z,88.36
2023-04-18T04:43:15.329Z,87.88
2023-04-18T04:45:44.501Z,87.79
2023-04-18T04:48:13.224Z,88.11
2023-04-18T04:50:52.094Z,87.80
2023-04-18T04:53:20.505Z,87.43
2023-04-18T04:55:49.081Z,87.62
2023-04-18T04:58:18.629Z,87.97
2023-04-18T05:01:07.529Z,88.29
2023-04-18T05:03:36.499Z,88.36
2023-04-18T05:06:05.388Z,88.55
2023-04-18T05:08:33.198Z,88.46
2023-04-18T05:11:02.214Z,88.08
2023-04-18T05:13:30.078Z,87.87
2023-04-18T05:15:59.315Z,88.23
2023-04-18T05:18:27.128Z,88.34
2023-04-18T05:20:55.835Z,87.67
2023-04-18T05:23:23.818Z,87.40
2023-04-18T05:25:52.211Z,87.59
2023-04-18T05:28:19.995Z,87.68
2023-04-18T05:30:47.915Z,87.59
2023-04-18T05:33:15.925Z,87.92
2023-04-18T05:35:43.880Z,87.61
2023-04-18T05:38:11.812Z,87.10
2023-04-18T05:40:39.590Z,86.93
2023-04-18T05:43:07.392Z,86.43
2023-04-18T05:45:35.353Z,86.44
2023-04-18T05:48:03.374Z,85.94
2023-04-18T05:50:31.134Z,86.19
2023-04-18T05:53:01.204Z,85.36
2023-04-18T05:55:29.079Z,84.97
2023-04-18T05:57:56.825Z,84.97
2023-04-18T06:00:28.038Z,84.39
2023-04-18T06:02:56.397Z,84.21
2023-04-18T06:05:24.833Z,84.02
2023-04-18T06:07:52.857Z,83.19
2023-04-18T06:10:20.943Z,82.77
2023-04-18T06:12:48.873Z,81.80
2023-04-18T06:15:16.813Z,81.72
2023-04-18T06:17:44.738Z,80.97
2023-04-18T06:20:13.051Z,80.29
2023-04-18T06:22:40.863Z,80.93
2023-04-18T06:25:10.072Z,79.84
2023-04-18T06:27:38.204Z,79.80
2023-04-18T06:30:07.833Z,78.26
2023-04-18T06:32:35.777Z,77.40
2023-04-18T06:35:04.001Z,77.15
2023-04-18T06:37:31.866Z,77.90
2023-04-18T06:39:59.740Z,77.70
2023-04-18T06:42:27.662Z,77.17
2023-04-18T06:44:55.789Z,77.03
2023-04-18T06:47:23.904Z,76.55
2023-04-18T06:49:51.722Z,76.28
2023-04-18T06:52:19.527Z,76.22
2023-04-18T06:54:47.400Z,76.51
2023-04-18T06:57:15.839Z,75.18
2023-04-18T06:59:43.602Z,75.17
2023-04-18T07:02:11.534Z,74.67
2023-04-18T07:04:39.597Z,75.58
2023-04-18T07:07:07.506Z,77.24
2023-04-18T07:09:35.365Z,75.99
2023-04-18T07:12:03.550Z,74.99
2023-04-18T07:14:33.556Z,73.95
2023-04-18T07:17:03.617Z,75.06
2023-04-18T07:19:31.855Z,74.11
2023-04-18T07:22:01.715Z,75.30
2023-04-18T07:24:32.283Z,75.95
2023-04-18T07:27:01.343Z,74.70
2023-04-18T07:29:29.598Z,73.53
2023-04-18T07:31:58.896Z,74.25
2023-04-18T07:34:29.766Z,74.91
2023-04-18T07:36:58.422Z,72.73
2023-04-18T07:39:26.496Z,72.24
2023-04-18T07:41:54.805Z,72.25
2023-04-18T07:44:25.202Z,73.04
2023-04-18T07:46:53.270Z,72.22
2023-04-18T07:49:21.121Z,71.04
2023-04-18T07:51:48.897Z,71.60
2023-04-18T07:54:17.766Z,72.16
2023-04-18T07:56:45.689Z,71.36
2023-04-18T07:59:16.049Z,70.86
2023-04-18T08:01:44.384Z,70.83
2023-04-18T08:04:13.122Z,71.55
2023-04-18T08:06:41.439Z,70.49
2023-04-18T08:09:09.351Z,70.82
2023-04-18T08:11:38.855Z,71.76
2023-04-18T08:14:06.769Z,70.61
2023-04-18T08:16:36.856Z,70.90
2023-04-18T08:19:06.136Z,72.84
2023-04-18T08:21:33.961Z,70.79
2023-04-18T08:24:01.729Z,70.45
2023-04-18T08:26:29.560Z,70.12
2023-04-18T08:28:58.512Z,69.50
2023-04-18T08:31:27.456Z,70.15
2023-04-18T08:33:56.256Z,68.54
2023-04-18T08:36:24.863Z,68.73
2023-04-18T08:38:52.647Z,69.85
2023-04-18T08:41:24.807Z,69.54
2023-04-18T08:43:53.438Z,68.82
2023-04-18T08:46:25.406Z,67.40
2023-04-18T08:48:53.760Z,66.62
2023-04-18T08:51:21.677Z,67.05
2023-04-18T08:53:50.627Z,66.69
2023-04-18T08:56:22.248Z,65.95
2023-04-18T08:58:50.522Z,65.01
2023-04-18T09:01:18.419Z,65.01
2023-04-18T09:03:46.312Z,64.25
2023-04-18T09:06:20.804Z,64.58
2023-04-18T09:09:05.817Z,64.09
2023-04-18T09:11:36.680Z,63.96
2023-04-18T09:14:04.574Z,63.09
2023-04-18T09:16:50.407Z,63.67
2023-04-18T09:19:21.651Z,64.06
2023-04-18T09:22:02.612Z,63.33
2023-04-18T09:24:32.072Z,61.69
2023-04-18T09:27:01.300Z,62.27
2023-04-18T09:29:49.227Z,61.54
2023-04-18T09:32:31.639Z,61.77
2023-04-18T09:35:05.413Z,61.15
2023-04-18T09:37:36.881Z,63.76
2023-04-18T09:40:20.625Z,64.76
2023-04-18T09:42:48.669Z,63.49
2023-04-18T09:45:16.537Z,63.42
2023-04-18T09:47:45.049Z,64.95
2023-04-18T09:50:13.174Z,65.02
2023-04-18T09:52:43.278Z,64.08
2023-04-18T09:55:15.601Z,63.53
2023-04-18T09:57:48.638Z,64.34
2023-04-18T10:00:26.587Z,63.30
2023-04-18T10:02:57.756Z,63.64
2023-04-18T10:05:30.766Z,63.79
2023-04-18T10:08:01.113Z,61.81
2023-04-18T10:10:31.601Z,61.24
2023-04-18T10:13:02.876Z,60.77
2023-04-18T10:15:31.903Z,62.07
2023-04-18T10:18:06.936Z,65.15
2023-04-18T10:20:35.677Z,64.63
2023-04-18T10:23:35.097Z,63.57
2023-04-18T10:26:05.550Z,62.96
2023-04-18T10:29:11.128Z,64.36
2023-04-18T10:31:41.154Z,64.14
2023-04-18T10:34:09.518Z,64.76
2023-04-18T10:36:37.396Z,63.25
2023-04-18T10:39:22.889Z,61.07
2023-04-18T10:41:51.666Z,60.20
2023-04-18T10:44:22.746Z,61.25
2023-04-18T10:46:51.180Z,61.80
2023-04-18T10:49:30.282Z,60.86
2023-04-18T10:52:03.191Z,60.18
2023-04-18T10:54:41.842Z,61.21
2023-04-18T10:57:11.254Z,63.00
2023-04-18T10:59:43.300Z,62.64
2023-04-18T11:02:27.096Z,62.86
2023-04-18T11:04:57.836Z,59.55
2023-04-18T11:07:46.009Z,60.39
2023-04-18T11:10:19.054Z,62.32
2023-04-18T11:12:47.986Z,62.36
2023-04-18T11:15:24.425Z,62.84
2023-04-18T11:18:03.355Z,63.13
2023-04-18T11:20:50.683Z,61.38
2023-04-18T11:23:22.874Z,60.14
2023-04-18T11:25:54.377Z,60.69
2023-04-18T11:28:24.774Z,61.98
2023-04-18T11:30:59.065Z,64.35
2023-04-18T11:33:29.155Z,63.60
2023-04-18T11:36:01.493Z,64.42
2023-04-18T11:38:33.797Z,64.89
2023-04-18T11:41:04.560Z,64.86
2023-04-18T11:43:32.416Z,66.03
2023-04-18T11:46:00.596Z,66.30
2023-04-18T11:48:37.611Z,65.67
2023-04-18T11:51:07.908Z,66.36
2023-04-18T11:53:38.751Z,65.24
2023-04-18T11:56:07.507Z,64.12
2023-04-18T11:58:36.636Z,63.60
2023-04-18T12:01:25.656Z,63.98
2023-04-18T12:04:05.806Z,63.74
2023-04-18T12:06:54.328Z,64.36
2023-04-18T12:09:24.978Z,64.49
2023-04-18T12:12:02.674Z,64.37
2023-04-18T12:14:30.729Z,63.50
2023-04-18T12:16:58.766Z,63.02
2023-04-18T12:19:28.133Z,63.77
2023-04-18T12:22:06.937Z,63.50
2023-04-18T12:24:35.975Z,62.77
2023-04-18T12:27:03.871Z,62.73
2023-04-18T12:29:31.674Z,61.02
2023-04-18T12:31:59.522Z,59.29
2023-04-18T12:34:28.919Z,58.09
2023-04-18T12:36:56.963Z,57.60
2023-04-18T12:39:26.016Z,58.39
2023-04-18T12:41:53.832Z,58.23
2023-04-18T12:44:22.606Z,57.33
2023-04-18T12:46:50.921Z,58.23
2023-04-18T12:49:18.798Z,59.58
2023-04-18T12:51:46.584Z,59.21
2023-04-18T12:54:14.754Z,59.15
2023-04-18T12:56:42.715Z,59.26
2023-04-18T12:59:10.554Z,59.17
2023-04-18T13:01:38.345Z,60.06
2023-04-18T13:04:12.550Z,59.89
2023-04-18T13:06:41.404Z,59.57
2023-04-18T13:09:10.315Z,59.07
2023-04-18T13:11:38.092Z,59.33
2023-04-18T13:14:05.942Z,60.20
2023-04-18T13:16:33.831Z,59.36
2023-04-18T13:19:01.687Z,59.30
2023-04-18T13:21:29.470Z,59.70
2023-04-18T13:23:57.307Z,58.40
2023-04-18T13:26:25.713Z,57.02
2023-04-18T13:28:53.554Z,56.52
2023-04-18T13:31:21.555Z,55.46
2023-04-18T13:33:49.379Z,56.21
2023-04-18T13:36:18.014Z,55.78
2023-04-18T13:38:46.469Z,54.74
2023-04-18T13:41:14.263Z,53.30
2023-04-18T13:43:42.136Z,54.42
2023-04-18T13:46:15.154Z,54.72
2023-04-18T13:48:42.987Z,54.88
2023-04-18T13:51:10.791Z,55.73
2023-04-18T13:53:38.835Z,55.18
2023-04-18T13:56:07.521Z,55.57
2023-04-18T13:58:35.736Z,56.55
2023-04-18T14:01:03.606Z,56.28
2023-04-18T14:03:31.911Z,57.10
2023-04-18T14:06:00.469Z,57.25
2023-04-18T14:08:28.217Z,58.26
2023-04-18T14:10:56.221Z,58.19
2023-04-18T14:13:23.970Z,58.38
2023-04-18T14:15:53.705Z,59.43
2023-04-18T14:18:21.867Z,57.77
2023-04-18T14:20:49.721Z,58.27
2023-04-18T14:23:17.814Z,57.89
2023-04-18T14:25:45.673Z,57.74
2023-04-18T14:28:13.511Z,57.40
2023-04-18T14:30:41.386Z,56.87
2023-04-18T14:33:10.059Z,57.06
2023-04-18T14:35:38.362Z,57.86
2023-04-18T14:38:06.237Z,59.20
2023-04-18T14:40:34.108Z,58.76
2023-04-18T14:43:02.538Z,58.46
2023-04-18T14:45:34.072Z,58.67
2023-04-18T14:48:02.107Z,58.82
2023-04-18T14:50:31.040Z,57.77
2023-04-18T14:52:58.883Z,56.74
2023-04-18T14:55:26.806Z,56.28
2023-04-18T14:57:54.767Z,55.62
2023-04-18T15:00:22.825Z,56.02
2023-04-18T15:02:51.017Z,55.86
2023-04-18T15:05:23.483Z,56.59
2023-04-18T15:07:52.167Z,57.38
2023-04-18T15:10:22.247Z,56.86
2023-04-18T15:12:51.190Z,57.65
2023-04-18T15:15:19.504Z,57.90
2023-04-18T15:17:47.362Z,56.89
2023-04-18T15:20:16.157Z,55.24
2023-04-18T15:22:44.028Z,53.39
2023-04-18T15:25:16.170Z,53.37
2023-04-18T15:27:44.010Z,52.44
2023-04-18T15:30:12.427Z,53.35
2023-04-18T15:35:11.829Z,51.42
2023-04-18T15:37:39.978Z,52.27
2023-04-18T15:40:11.127Z,52.90
2023-04-18T15:42:39.054Z,52.33
2023-04-18T15:45:08.084Z,52.79
2023-04-18T15:47:36.145Z,53.05
2023-04-18T15:50:04.850Z,54.21
2023-04-18T15:52:32.750Z,55.43
2023-04-18T15:55:01.085Z,56.07
2023-04-18T15:57:31.908Z,56.21
2023-04-18T16:00:00.167Z,57.05
2023-04-18T16:02:28.279Z,57.18
2023-04-18T16:04:56.482Z,57.86
2023-04-18T16:07:24.670Z,57.57
2023-04-18T16:09:52.591Z,57.62
2023-04-18T16:12:20.427Z,58.30
2023-04-18T16:14:48.157Z,58.22
2023-04-18T16:17:15.927Z,57.86
2023-04-18T16:19:43.838Z,57.66
2023-04-18T16:22:12.422Z,57.80
2023-04-18T16:24:42.007Z,57.77
2023-04-18T16:27:10.001Z,58.13
2023-04-18T16:29:37.775Z,57.40
2023-04-18T16:32:06.622Z,56.09
2023-04-18T16:34:34.537Z,55.93
2023-04-18T16:37:02.342Z,56.27
2023-04-18T16:39:30.816Z,56.53
2023-04-18T16:41:58.581Z,55.64
2023-04-18T16:44:26.517Z,55.23
2023-04-18T16:46:54.494Z,56.45
2023-04-18T16:49:23.531Z,56.77
2023-04-18T16:51:51.396Z,56.58
2023-04-18T16:54:19.231Z,57.13
2023-04-18T16:56:49.961Z,56.70
2023-04-18T16:59:18.021Z,56.67
2023-04-18T17:01:46.075Z,56.81
2023-04-18T17:04:15.485Z,57.11
2023-04-18T17:06:43.743Z,57.83
2023-04-18T17:09:16.092Z,58.20
2023-04-18T17:11:44.277Z,58.22
2023-04-18T17:14:12.258Z,58.24
2023-04-18T17:16:42.815Z,58.36
2023-04-18T17:19:11.214Z,58.56
2023-04-18T17:21:39.065Z,59.62
2023-04-18T17:24:07.319Z,59.90
2023-04-18T17:26:38.841Z,60.23
2023-04-18T17:29:06.734Z,60.30
2023-04-18T17:31:38.692Z,60.48
2023-04-18T17:34:07.126Z,60.63
2023-04-18T17:36:35.306Z,61.58
2023-04-18T17:39:06.614Z,63.37
2023-04-18T17:41:38.946Z,64.09
2023-04-18T17:44:08.214Z,64.41
2023-04-18T17:46:36.247Z,64.38
2023-04-18T17:49:04.628Z,64.21
2023-04-18T17:51:32.751Z,64.55
2023-04-18T17:54:00.660Z,64.64
2023-04-18T17:56:31.433Z,64.15
2023-04-18T17:59:00.487Z,64.27
2023-04-18T18:01:30.356Z,64.46
2023-04-18T18:03:58.696Z,64.48
2023-04-18T18:06:29.749Z,64.66
2023-04-18T18:08:57.808Z,64.81
2023-04-18T18:11:27.659Z,65.61
2023-04-18T18:13:57.263Z,65.67
2023-04-18T18:16:25.193Z,65.94
2023-04-18T18:18:53.324Z,66.35
2023-04-18T18:21:21.433Z,66.62
2023-04-18T18:23:49.296Z,66.66
2023-04-18T18:26:17.462Z,66.86
2023-04-18T18:28:45.594Z,67.07
2023-04-18T18:31:13.566Z,67.08
2023-04-18T18:33:41.587Z,67.15
2023-04-18T18:36:09.450Z,67.19
2023-04-18T18:38:37.545Z,67.37
2023-04-18T18:41:05.734Z,67.44
2023-04-18T18:43:34.058Z,67.42
2023-04-18T18:46:02.235Z,67.53
2023-04-18T18:48:30.267Z,67.78
2023-04-18T18:50:58.244Z,67.78
2023-04-18T18:53:26.213Z,67.83
2023-04-18T18:55:54.291Z,67.88
2023-04-18T18:58:22.473Z,68.41
2023-04-18T19:00:51.125Z,68.32
2023-04-18T19:03:21.229Z,68.40
2023-04-18T19:05:49.416Z,68.71
2023-04-18T19:08:17.187Z,68.75
2023-04-18T19:10:45.180Z,68.73
2023-04-18T19:13:13.179Z,69.08
2023-04-18T19:15:41.100Z,69.46
2023-04-18T19:18:09.092Z,69.48
2023-04-18T19:20:38.873Z,69.89
2023-04-18T19:23:06.982Z,69.77
2023-04-18T19:25:34.865Z,70.07
2023-04-18T19:28:04.844Z,70.47
2023-04-18T19:30:32.811Z,71.01
2023-04-18T19:33:00.897Z,71.28
2023-04-18T19:35:28.925Z,71.86
2023-04-18T19:38:01.439Z,72.33
2023-04-18T19:40:29.820Z,72.56
2023-04-18T19:42:58.039Z,72.96
2023-04-18T19:45:26.008Z,73.10
2023-04-18T19:47:53.885Z,73.81
2023-04-18T19:50:21.818Z,74.15
2023-04-18T19:52:49.713Z,74.29
2023-04-18T19:55:17.640Z,74.34
2023-04-18T19:57:45.895Z,74.39
2023-04-18T20:00:15.258Z,74.42
2023-04-18T20:02:43.261Z,72.31
2023-04-18T20:05:12.896Z,71.55
2023-04-18T20:07:41.686Z,71.63
2023-04-18T20:10:10.907Z,71.45
2023-04-18T20:12:38.827Z,71.76
2023-04-18T20:15:08.180Z,71.43
2023-04-18T20:17:36.183Z,71.34
2023-04-18T20:20:08.002Z,71.73
2023-04-18T20:22:37.674Z,71.80
2023-04-18T20:25:06.572Z,71.88
2023-04-18T20:27:34.426Z,71.85
2023-04-18T20:30:02.476Z,71.79
2023-04-18T20:32:30.327Z,71.38
2023-04-18T20:34:58.530Z,71.15
2023-04-18T20:37:31.209Z,70.80
2023-04-18T20:40:02.939Z,70.93
2023-04-18T20:42:31.974Z,71.51
2023-04-18T20:45:00.046Z,71.78
2023-04-18T20:47:27.821Z,71.56
2023-04-18T20:49:56.545Z,72.17
2023-04-18T20:52:24.294Z,73.04
2023-04-18T20:54:52.008Z,73.03
2023-04-18T20:57:19.925Z,72.94
2023-04-18T20:59:48.504Z,73.17
2023-04-18T21:02:16.454Z,73.49
2023-04-18T21:04:46.630Z,73.80
2023-04-18T21:07:14.589Z,73.61
2023-04-18T21:09:42.386Z,74.22
2023-04-18T21:12:10.200Z,73.97
2023-04-18T21:14:39.603Z,73.98
2023-04-18T21:17:09.516Z,73.88
2023-04-18T21:19:37.478Z,73.75
2023-04-18T21:22:05.293Z,73.57
2023-04-18T21:24:33.675Z,73.43
2023-04-18T21:27:02.363Z,73.37
2023-04-18T21:29:30.250Z,73.08
2023-04-18T21:31:58.194Z,71.37
2023-04-18T21:34:26.538Z,71.17
2023-04-18T21:36:54.360Z,71.09
2023-04-18T21:39:22.237Z,71.74
2023-04-18T21:41:50.168Z,71.70
2023-04-18T21:44:18.829Z,72.18
2023-04-18T21:46:46.804Z,72.30
2023-04-18T21:49:15.100Z,72.51
2023-04-18T21:51:43.335Z,73.28
2023-04-18T21:54:11.274Z,74.09
2023-04-18T21:56:39.080Z,75.04
2023-04-18T21:59:06.911Z,75.09
2023-04-18T22:01:36.195Z,75.26
2023-04-18T22:04:05.612Z,75.32
2023-04-18T22:06:34.675Z,75.67
2023-04-18T22:09:02.475Z,75.33
2023-04-18T22:11:33.177Z,74.98
2023-04-18T22:14:01.284Z,74.88
2023-04-18T22:16:29.168Z,73.64
2023-04-18T22:18:57.692Z,71.59
2023-04-18T22:21:25.780Z,68.10
2023-04-18T22:23:53.604Z,65.31
2023-04-18T22:26:21.381Z,60.82
2023-04-18T22:28:49.410Z,60.36
2023-04-18T22:31:17.232Z,57.01
2023-04-18T22:33:47.488Z,55.60
2023-04-18T22:36:15.452Z,55.38
2023-04-18T22:38:43.351Z,54.99
2023-04-18T22:41:11.228Z,55.08
2023-04-18T22:43:39.124Z,54.85
2023-04-18T22:46:06.956Z,54.95
2023-04-18T22:48:35.159Z,55.87
2023-04-18T22:51:03.295Z,55.81
2023-04-18T22:53:31.089Z,56.25
2023-04-18T22:55:58.904Z,56.87
2023-04-18T22:58:26.683Z,58.25
2023-04-18T23:00:57.454Z,58.61
2023-04-18T23:03:25.652Z,58.61
2023-04-18T23:05:53.532Z,58.70
2023-04-18T23:08:22.499Z,58.95
2023-04-18T23:10:50.378Z,59.75
2023-04-18T23:13:18.184Z,60.07
2023-04-18T23:15:46.002Z,60.61
2023-04-18T23:18:14.115Z,60.94
2023-04-18T23:20:41.963Z,62.31
2023-04-18T23:23:09.768Z,64.90
2023-04-18T23:25:38.338Z,65.45
2023-04-18T23:28:06.836Z,65.55
2023-04-18T23:30:36.862Z,65.27
2023-04-18T23:33:04.901Z,65.06
2023-04-18T23:35:32.723Z,64.92
2023-04-18T23:38:00.731Z,64.44
2023-04-18T23:40:28.498Z,63.65
2023-04-18T23:42:57.081Z,62.51
2023-04-18T23:45:24.897Z,60.35
2023-04-18T23:47:52.769Z,59.41
2023-04-18T23:50:20.786Z,58.13
2023-04-18T23:52:48.556Z,57.72
2023-04-18T23:55:16.849Z,56.86
2023-04-18T23:57:44.633Z,56.50
